Time;durP1;ratioP1;P1;durP2;ratioP2;P2;SDS_P1;SDS_P2;PMS_P1;PMS_P2;Temp;Humidity;BMP_temperature;BMP_pressure;BME280_temperature;BME280_humidity;BME280_pressure;Samples;Min_cycle;Max_cycle;Signal;HPM_P1;HPM_P2
2022/11/25 00:02:45;;;;;;;17.87;12.33;;;;;6.50;98887.00;;;;16595465;28;20299;-46
2022/11/25 00:10:47;;;;;;;13.73;10.73;;;;;6.80;98867.00;;;;16592787;28;20642;-45
2022/11/25 00:18:54;;;;;;;17.50;11.87;;;;;6.70;98874.00;;;;16592414;28;20258;-46
2022/11/25 00:26:56;;;;;;;15.20;12.17;;;;;6.80;98858.00;;;;16587793;28;20221;-46
2022/11/25 00:35:00;;;;;;;18.40;13.67;;;;;6.90;98866.00;;;;16603452;28;20211;-46
2022/11/25 00:51:24;;;;;;;21.37;14.23;;;;;6.40;98873.00;;;;16608131;28;20232;-45
2022/11/25 00:59:28;;;;;;;26.73;13.47;;;;;6.40;98881.00;;;;16592142;28;20216;-47
2022/11/25 01:07:32;;;;;;;14.40;12.13;;;;;6.30;98877.00;;;;16587372;28;20263;-46
2022/11/25 01:15:37;;;;;;;23.13;14.10;;;;;6.00;98900.00;;;;16604794;28;20219;-46
2022/11/25 01:23:41;;;;;;;15.03;12.60;;;;;6.30;98896.00;;;;16603044;28;20204;-46
2022/11/25 01:31:45;;;;;;;17.53;13.50;;;;;6.30;98879.00;;;;16604824;28;20229;-46
2022/11/25 01:39:49;;;;;;;18.17;12.97;;;;;6.10;98887.00;;;;16601133;28;20232;-46
2022/11/25 01:47:54;;;;;;;14.20;12.37;;;;;6.00;98873.00;;;;16609046;28;20789;-46
2022/11/25 01:56:01;;;;;;;14.37;12.67;;;;;6.10;98885.00;;;;16600128;28;20230;-45
2022/11/25 02:04:04;;;;;;;18.77;12.13;;;;;6.40;98887.00;;;;16591691;28;20557;-46
2022/11/25 02:12:08;;;;;;;13.00;11.10;;;;;6.30;98880.00;;;;16604255;28;20269;-46
2022/11/25 02:20:13;;;;;;;22.33;11.53;;;;;5.90;98889.00;;;;16600098;28;20225;-45
2022/11/25 02:28:19;;;;;;;11.13;10.00;;;;;6.10;98900.00;;;;16590181;28;20260;-46
2022/11/25 02:36:23;;;;;;;13.73;10.97;;;;;6.20;98885.00;;;;16593380;28;20232;-46
2022/11/25 02:44:27;;;;;;;16.00;11.17;;;;;6.20;98874.00;;;;16602242;28;20201;-46
2022/11/25 02:52:30;;;;;;;20.30;11.20;;;;;6.30;98868.00;;;;16595649;28;20235;-46
2022/11/25 03:00:34;;;;;;;14.23;9.57;;;;;6.20;98867.00;;;;16589621;28;20228;-46
2022/11/25 03:08:37;;;;;;;13.30;11.00;;;;;6.30;98859.00;;;;16591646;28;20225;-46
2022/11/25 03:16:44;;;;;;;11.77;8.63;;;;;5.10;98869.00;;;;16619932;28;20233;-47
2022/11/25 03:24:47;;;;;;;11.07;9.37;;;;;5.10;98867.00;;;;16591377;28;20208;-47
2022/11/25 03:32:51;;;;;;;16.03;10.53;;;;;5.00;98882.00;;;;16592851;28;20604;-47
2022/11/25 03:40:54;;;;;;;11.13;9.83;;;;;5.30;98879.00;;;;16604542;28;20242;-47
2022/11/25 03:48:58;;;;;;;12.43;9.50;;;;;5.90;98868.00;;;;16605389;28;20232;-48
2022/11/25 03:57:01;;;;;;;16.50;9.73;;;;;6.00;98865.00;;;;16610341;28;20229;-47
2022/11/25 04:05:08;;;;;;;9.90;9.00;;;;;6.00;98859.00;;;;16605098;28;20212;-47
2022/11/25 04:13:10;;;;;;;9.73;8.83;;;;;5.60;98855.00;;;;16607294;28;20606;-47
2022/11/25 04:21:18;;;;;;;11.27;9.77;;;;;5.40;98862.00;;;;16601882;28;20225;-47
2022/11/25 04:29:21;;;;;;;11.10;9.30;;;;;5.20;98856.00;;;;16622872;28;20608;-46
2022/11/25 04:37:26;;;;;;;13.93;11.27;;;;;5.80;98853.00;;;;16602094;28;20291;-47
2022/11/25 04:45:30;;;;;;;15.33;11.90;;;;;6.20;98853.00;;;;16603314;28;20213;-47
2022/11/25 04:53:34;;;;;;;15.73;10.57;;;;;6.00;98862.00;;;;16611470;28;20228;-48
2022/11/25 05:01:36;;;;;;;12.40;10.93;;;;;5.90;98852.00;;;;16601833;28;20221;-46
2022/11/25 05:09:54;;;;;;;11.17;9.97;;;;;5.80;98859.00;;;;16600581;28;20642;-47
2022/11/25 05:18:19;;;;;;;12.77;9.83;;;;;5.90;98879.00;;;;16596743;28;20666;-47
2022/11/25 05:26:25;;;;;;;14.97;11.07;;;;;5.70;98868.00;;;;16614075;28;20311;-47
2022/11/25 05:34:31;;;;;;;14.90;11.07;;;;;5.70;98863.00;;;;16609276;28;20231;-48
2022/11/25 05:42:35;;;;;;;17.83;11.37;;;;;5.70;98859.00;;;;16621425;28;20256;-47
2022/11/25 05:50:40;;;;;;;12.43;9.63;;;;;5.70;98875.00;;;;16606309;28;20295;-45
2022/11/25 05:58:54;;;;;;;11.17;9.97;;;;;5.90;98885.00;;;;16607753;28;20231;-47
2022/11/25 06:06:59;;;;;;;14.30;12.43;;;;;5.90;98894.00;;;;16623303;28;20350;-48
2022/11/25 06:15:03;;;;;;;16.33;11.20;;;;;5.90;98904.00;;;;16626813;28;20731;-47
2022/11/25 06:23:06;;;;;;;11.27;9.77;;;;;5.80;98897.00;;;;16608496;28;20241;-46
2022/11/25 06:31:15;;;;;;;17.33;12.97;;;;;5.40;98919.00;;;;16595069;28;20252;-46
2022/11/25 06:39:29;;;;;;;22.67;13.60;;;;;5.20;98927.00;;;;16585600;28;20244;-45
2022/11/25 06:47:32;;;;;;;14.40;10.53;;;;;5.30;98929.00;;;;16586713;28;20229;-46
2022/11/25 06:55:35;;;;;;;13.63;10.53;;;;;4.90;98945.00;;;;16601185;28;20266;-47
2022/11/25 07:03:39;;;;;;;15.90;11.40;;;;;5.70;98941.00;;;;16596810;28;20320;-47
2022/11/25 07:11:42;;;;;;;18.23;11.87;;;;;5.90;98937.00;;;;16592710;28;20225;-47
2022/11/25 07:19:46;;;;;;;17.40;11.80;;;;;6.10;98953.00;;;;16605158;28;20233;-47
2022/11/25 07:27:48;;;;;;;13.67;10.00;;;;;6.00;98945.00;;;;16601668;28;20712;-47
2022/11/25 07:35:52;;;;;;;12.80;11.27;;;;;6.10;98959.00;;;;16599315;28;20214;-46
2022/11/25 07:43:56;;;;;;;14.90;12.20;;;;;6.10;98961.00;;;;16622272;28;20204;-47
2022/11/25 07:52:03;;;;;;;14.13;11.77;;;;;6.40;98960.00;;;;16622218;28;20855;-45
2022/11/25 08:00:07;;;;;;;12.73;10.60;;;;;6.30;98986.00;;;;16617044;28;20300;-45
2022/11/25 08:08:15;;;;;;;14.37;11.03;;;;;6.40;98978.00;;;;16614511;28;20243;-47
2022/11/25 08:16:20;;;;;;;14.40;12.23;;;;;6.40;98992.00;;;;16614752;28;20224;-46
2022/11/25 08:24:27;;;;;;;15.37;12.70;;;;;6.40;99001.00;;;;16613030;28;20265;-47
2022/11/25 08:32:30;;;;;;;20.10;10.90;;;;;6.70;98980.00;;;;16618990;28;20221;-47
2022/11/25 08:40:34;;;;;;;17.50;10.97;;;;;6.70;98993.00;;;;16629173;28;20234;-47
2022/11/25 08:48:36;;;;;;;16.10;11.70;;;;;6.80;98982.00;;;;16618684;28;20232;-46
2022/11/25 08:56:42;;;;;;;12.07;10.37;;;;;7.00;98979.00;;;;16617557;28;20222;-46
2022/11/25 09:04:44;;;;;;;12.63;10.97;;;;;7.20;98979.00;;;;16614897;28;20187;-46
2022/11/25 09:12:48;;;;;;;18.03;12.40;;;;;7.40;98984.00;;;;16620445;28;20806;-47
2022/11/25 09:20:51;;;;;;;15.50;12.00;;;;;7.70;98988.00;;;;16632469;28;20242;-46
2022/11/25 09:28:55;;;;;;;13.73;11.73;;;;;8.20;98989.00;;;;16622690;28;20222;-47
2022/11/25 09:36:57;;;;;;;12.00;10.80;;;;;8.70;98993.00;;;;16623273;28;20307;-47
2022/11/25 09:53:43;;;;;;;14.57;11.93;;;;;8.60;98998.00;;;;16629594;28;20215;-47
2022/11/25 10:01:50;;;;;;;11.97;10.53;;;;;8.70;98975.00;;;;16632108;28;20301;-45
2022/11/25 10:09:54;;;;;;;13.30;10.73;;;;;9.00;98981.00;;;;16623498;28;20301;-48
2022/11/25 10:18:00;;;;;;;16.47;10.23;;;;;9.10;98992.00;;;;16620425;28;20226;-47
2022/11/25 10:26:09;;;;;;;14.40;11.37;;;;;9.20;98986.00;;;;16620756;28;20260;-47
2022/11/25 10:34:18;;;;;;;16.40;11.63;;;;;9.50;98984.00;;;;16584456;28;20715;-47
2022/11/25 10:42:25;;;;;;;12.93;11.53;;;;;10.00;98985.00;;;;16599607;28;20231;-47
2022/11/25 10:50:34;;;;;;;17.10;10.67;;;;;10.40;98975.00;;;;16607496;28;20230;-47
2022/11/25 10:58:39;;;;;;;12.50;10.10;;;;;10.40;98981.00;;;;16563568;28;20218;-47
2022/11/25 11:06:44;;;;;;;13.00;11.70;;;;;10.40;98982.00;;;;16547138;28;20306;-47
2022/11/25 11:14:46;;;;;;;14.73;10.93;;;;;10.50;98993.00;;;;16561714;28;20351;-47
2022/11/25 11:22:57;;;;;;;15.40;10.80;;;;;10.60;98996.00;;;;16580189;28;20214;-47
2022/11/25 11:31:02;;;;;;;11.70;10.50;;;;;10.60;98997.00;;;;16596426;28;20226;-47
2022/11/25 11:39:19;;;;;;;17.07;10.90;;;;;10.80;99008.00;;;;16628475;28;20231;-47
2022/11/25 11:47:26;;;;;;;12.27;10.83;;;;;11.10;99029.00;;;;16614350;28;20305;-47
2022/11/25 11:55:51;;;;;;;12.57;11.00;;;;;11.10;99037.00;;;;16599797;28;20219;-47
2022/11/25 12:03:58;;;;;;;12.37;10.50;;;;;11.90;99028.00;;;;16637766;28;20542;-47
2022/11/25 12:12:06;;;;;;;15.20;12.00;;;;;11.90;99044.00;;;;16615540;22;20218;-76
2022/11/25 12:20:17;;;;;;;39.87;36.47;;;;;12.30;99042.00;;;;16590751;28;20227;-75
2022/11/25 12:28:25;;;;;;;15.50;11.70;;;;;12.80;99044.00;;;;16580993;28;20206;-74
2022/11/25 12:36:33;;;;;;;14.20;12.30;;;;;12.90;99043.00;;;;16584107;28;20231;-75
2022/11/25 12:44:48;;;;;;;16.70;11.20;;;;;12.50;99047.00;;;;16551560;28;20700;-75
2022/11/25 12:52:56;;;;;;;18.53;13.60;;;;;11.70;99061.00;;;;16577638;28;20293;-75
2022/11/25 13:01:27;;;;;;;13.80;9.87;;;;;11.70;99076.00;;;;16553141;28;20223;-75
2022/11/25 13:10:01;;;;;;;14.73;10.50;;;;;11.80;99096.00;;;;16576828;28;20242;-75
2022/11/25 13:18:10;;;;;;;17.53;8.73;;;;;11.70;99116.00;;;;16585199;28;20215;-74
2022/11/25 13:26:48;;;;;;;11.23;5.73;;;;;11.60;99130.00;;;;16570945;28;20215;-75
2022/11/25 13:35:33;;;;;;;11.03;6.23;;;;;11.60;99138.00;;;;16585620;28;20223;-74
2022/11/25 13:43:36;;;;;;;8.77;5.90;;;;;12.40;99147.00;;;;16560937;28;20627;-75
2022/11/25 13:51:49;;;;;;;13.40;7.80;;;;;11.70;99163.00;;;;16577255;28;20222;-74
2022/11/25 13:59:56;;;;;;;13.30;6.00;;;;;11.80;99169.00;;;;16583229;28;20301;-73
2022/11/25 14:08:07;;;;;;;10.23;7.40;;;;;11.90;99183.00;;;;16581705;28;20522;-73
2022/11/25 14:16:19;;;;;;;10.00;7.20;;;;;12.40;99190.00;;;;16553605;28;20640;-74
2022/11/25 14:24:35;;;;;;;11.63;7.43;;;;;12.50;99182.00;;;;16566500;28;20486;-75
2022/11/25 14:32:42;;;;;;;8.63;6.80;;;;;13.00;99190.00;;;;16565597;28;20228;-74
2022/11/25 14:40:51;;;;;;;12.47;7.80;;;;;12.80;99193.00;;;;16562366;28;20254;-77
2022/11/25 14:48:55;;;;;;;13.67;11.20;;;;;12.00;99205.00;;;;16577014;28;20252;-75
2022/11/25 14:56:59;;;;;;;9.43;7.87;;;;;11.60;99216.00;;;;16570842;28;20221;-75
2022/11/25 15:05:08;;;;;;;10.43;7.10;;;;;11.50;99232.00;;;;16583222;28;20701;-76
2022/11/25 15:13:14;;;;;;;9.23;4.80;;;;;12.10;99238.00;;;;16602863;28;20704;-76
2022/11/25 15:21:19;;;;;;;13.57;6.90;;;;;12.10;99240.00;;;;16582088;28;20271;-75
2022/11/25 15:29:23;;;;;;;6.83;5.13;;;;;11.70;99258.00;;;;16559089;28;20219;-76
2022/11/25 15:37:26;;;;;;;15.30;10.97;;;;;11.40;99275.00;;;;16575141;28;20285;-75
2022/11/25 15:45:35;;;;;;;13.33;7.80;;;;;11.00;99309.00;;;;16554320;28;20258;-75
2022/11/25 15:53:38;;;;;;;15.43;9.90;;;;;11.00;99292.00;;;;16585052;28;20338;-72
2022/11/25 16:01:41;;;;;;;12.13;8.53;;;;;10.80;99305.00;;;;16584942;28;20350;-72
2022/11/25 16:09:51;;;;;;;14.57;10.60;;;;;10.80;99299.00;;;;16546091;28;20711;-74
2022/11/25 16:17:55;;;;;;;22.33;11.97;;;;;10.50;99315.00;;;;16571277;28;20210;-74
2022/11/25 16:26:01;;;;;;;18.20;11.53;;;;;10.70;99313.00;;;;16584007;28;20245;-74
2022/11/25 16:34:13;;;;;;;8.70;6.73;;;;;10.30;99332.00;;;;16581383;28;20235;-74
2022/11/25 16:42:21;;;;;;;11.33;6.30;;;;;10.20;99335.00;;;;16587907;28;20301;-74
2022/11/25 16:50:27;;;;;;;10.30;7.43;;;;;10.30;99356.00;;;;16603178;28;20231;-74
2022/11/25 16:58:32;;;;;;;11.93;6.80;;;;;10.20;99353.00;;;;16608518;28;20208;-73
2022/11/25 17:06:36;;;;;;;10.23;6.60;;;;;10.20;99374.00;;;;16593961;28;20222;-74
2022/11/25 17:14:38;;;;;;;16.20;9.23;;;;;10.10;99390.00;;;;16600523;28;20762;-73
2022/11/25 17:22:42;;;;;;;10.10;6.87;;;;;10.00;99409.00;;;;16604882;28;20301;-74
2022/11/25 17:30:45;;;;;;;12.50;8.20;;;;;9.90;99416.00;;;;16610666;28;20738;-73
2022/11/25 17:38:49;;;;;;;15.50;9.80;;;;;10.20;99415.00;;;;16610156;28;20203;-73
2022/11/25 17:46:52;;;;;;;13.10;7.83;;;;;10.00;99441.00;;;;16600550;28;20526;-74
2022/11/25 17:54:56;;;;;;;12.60;8.07;;;;;10.00;99450.00;;;;16599353;28;20231;-74
2022/11/25 18:02:58;;;;;;;12.23;9.50;;;;;10.20;99458.00;;;;16606726;28;20227;-74
2022/11/25 18:11:04;;;;;;;16.50;10.50;;;;;10.20;99470.00;;;;16596650;28;20227;-73
2022/11/25 18:19:09;;;;;;;19.07;12.60;;;;;10.20;99478.00;;;;16614920;28;20275;-74
2022/11/25 18:27:22;;;;;;;15.10;9.50;;;;;10.10;99490.00;;;;16591770;28;20606;-73
2022/11/25 18:35:26;;;;;;;16.80;8.40;;;;;10.10;99491.00;;;;16602949;28;20598;-73
2022/11/25 18:43:33;;;;;;;11.00;9.73;;;;;10.00;99518.00;;;;16610208;28;20237;-73
2022/11/25 18:51:36;;;;;;;15.43;8.40;;;;;9.90;99530.00;;;;16600292;28;20234;-73
2022/11/25 18:59:40;;;;;;;19.27;11.40;;;;;9.90;99533.00;;;;16621003;28;20568;-75
2022/11/25 19:07:42;;;;;;;19.67;12.87;;;;;10.00;99538.00;;;;16625526;28;20213;-73
2022/11/25 19:15:46;;;;;;;14.97;10.77;;;;;9.50;99564.00;;;;16616854;28;20231;-74
2022/11/25 19:23:51;;;;;;;13.50;9.33;;;;;9.50;99572.00;;;;16613962;28;20234;-74
2022/11/25 19:31:56;;;;;;;9.83;7.50;;;;;9.60;99587.00;;;;16620777;28;20272;-73
2022/11/25 19:39:58;;;;;;;15.53;8.50;;;;;9.40;99596.00;;;;16604425;28;20552;-74
2022/11/25 19:48:06;;;;;;;12.57;7.93;;;;;9.50;99613.00;;;;16586774;28;20235;-73
2022/11/25 19:56:14;;;;;;;12.30;6.63;;;;;9.60;99618.00;;;;16586416;28;20242;-73
2022/11/25 20:04:20;;;;;;;10.70;9.00;;;;;9.60;99635.00;;;;16588502;28;20715;-74
2022/11/25 20:12:26;;;;;;;26.23;15.27;;;;;10.10;99637.00;;;;16594606;23;20235;-49
2022/11/25 20:20:32;;;;;;;13.63;9.60;;;;;9.80;99651.00;;;;16562747;28;20223;-49
2022/11/25 20:28:34;;;;;;;17.23;8.50;;;;;9.60;99670.00;;;;16537410;28;20954;-49
2022/11/25 20:36:41;;;;;;;18.97;14.13;;;;;10.00;99677.00;;;;16551981;28;20320;-49
2022/11/25 20:44:43;;;;;;;13.93;9.20;;;;;10.10;99693.00;;;;16541683;28;20625;-49
2022/11/25 20:52:47;;;;;;;24.43;15.37;;;;;10.20;99709.00;;;;16538535;28;20240;-49
2022/11/25 21:00:51;;;;;;;27.87;15.93;;;;;10.60;99706.00;;;;16567854;28;20289;-49
2022/11/25 21:08:57;;;;;;;26.03;18.23;;;;;11.00;99714.00;;;;16542832;28;20236;-49
2022/11/25 21:16:59;;;;;;;25.77;20.23;;;;;11.20;99720.00;;;;16582505;28;20228;-48
2022/11/25 21:25:03;;;;;;;20.23;13.83;;;;;10.30;99737.00;;;;16563207;28;20310;-49
2022/11/25 21:33:11;;;;;;;9.50;8.03;;;;;9.10;99762.00;;;;16597313;28;20258;-48
2022/11/25 21:41:15;;;;;;;12.40;9.57;;;;;9.30;99762.00;;;;16594441;28;20219;-48
2022/11/25 21:49:18;;;;;;;17.53;10.77;;;;;9.70;99768.00;;;;16574651;28;20204;-49
2022/11/25 21:57:27;;;;;;;15.53;11.13;;;;;9.50;99780.00;;;;16548017;28;20250;-49
2022/11/25 22:05:30;;;;;;;11.00;8.90;;;;;9.10;99788.00;;;;16575746;28;20307;-49
2022/11/25 22:13:37;;;;;;;16.77;11.53;;;;;8.90;99796.00;;;;16583122;28;20310;-49
2022/11/25 22:21:39;;;;;;;9.83;6.07;;;;;8.80;99808.00;;;;16590584;28;20215;-49
2022/11/25 22:29:43;;;;;;;16.60;8.70;;;;;8.90;99827.00;;;;16585096;28;20255;-48
2022/11/25 22:37:46;;;;;;;10.60;6.37;;;;;8.70;99813.00;;;;16540906;28;20314;-49
2022/11/25 22:45:50;;;;;;;12.53;7.17;;;;;8.00;99836.00;;;;16569646;28;20286;-48
2022/11/25 22:53:52;;;;;;;12.27;7.10;;;;;8.00;99855.00;;;;16534919;28;20274;-48
2022/11/25 23:01:57;;;;;;;15.70;8.60;;;;;8.20;99849.00;;;;16530911;28;20910;-49
2022/11/25 23:09:59;;;;;;;13.57;8.00;;;;;8.10;99855.00;;;;16533501;28;20231;-48
2022/11/25 23:18:06;;;;;;;11.13;8.07;;;;;8.50;99855.00;;;;16540264;28;20368;-49
2022/11/25 23:26:10;;;;;;;9.60;6.30;;;;;8.60;99866.00;;;;16559271;28;20220;-49
2022/11/25 23:34:14;;;;;;;12.27;7.10;;;;;8.70;99857.00;;;;16577273;28;20773;-48
2022/11/25 23:42:18;;;;;;;10.37;5.67;;;;;8.20;99865.00;;;;16580567;28;20277;-48
2022/11/25 23:50:26;;;;;;;12.60;6.87;;;;;8.30;99868.00;;;;16580382;28;20777;-49
2022/11/25 23:58:29;;;;;;;15.57;7.40;;;;;8.40;99876.00;;;;16594740;28;20750;-48
